Time;durP1;ratioP1;P1;durP2;ratioP2;P2;SDS_P1;SDS_P2;PMS_P1;PMS_P2;Temp;Humidity;BMP_temperature;BMP_pressure;BME280_temperature;BME280_humidity;BME280_pressure;Samples;Min_cycle;Max_cycle;Signal;HPM_P1;HPM_P2
2024/01/29 00:02:02;;;;;;;2.25;1.30;;;9.50;83.50;;;;;;5021402;28;20040;-77
2024/01/29 00:04:28;;;;;;;2.63;1.40;;;9.60;85.80;;;;;;5025556;28;20029;-77
2024/01/29 00:06:54;;;;;;;2.03;1.23;;;9.40;84.30;;;;;;4984326;28;20021;-78
2024/01/29 00:09:20;;;;;;;1.30;0.70;;;9.40;82.90;;;;;;5007473;28;20021;-80
2024/01/29 00:11:45;;;;;;;3.28;0.95;;;9.40;84.20;;;;;;5006578;28;20296;-78
2024/01/29 00:14:11;;;;;;;1.65;1.17;;;9.40;84.20;;;;;;5017459;28;20063;-79
2024/01/29 00:16:36;;;;;;;3.65;1.40;;;9.40;84.40;;;;;;4993877;28;20434;-79
2024/01/29 00:19:04;;;;;;;1.90;1.25;;;9.40;84.80;;;;;;5010378;28;20518;-79
2024/01/29 00:21:30;;;;;;;1.80;1.30;;;9.50;84.40;;;;;;5025263;28;20033;-79
2024/01/29 00:23:59;;;;;;;3.38;1.30;;;9.40;84.40;;;;;;4991027;28;20029;-79
2024/01/29 00:26:25;;;;;;;2.25;1.27;;;9.40;83.60;;;;;;5008494;28;20037;-80
2024/01/29 00:28:53;;;;;;;3.67;1.25;;;9.40;85.30;;;;;;5023540;28;20043;-79
2024/01/29 00:31:18;;;;;;;2.28;1.30;;;9.30;83.80;;;;;;5003106;28;20500;-79
2024/01/29 00:33:46;;;;;;;2.80;1.40;;;9.40;85.50;;;;;;4988056;28;20037;-80
2024/01/29 00:36:11;;;;;;;2.92;1.60;;;9.30;85.70;;;;;;4993603;28;20037;-79
2024/01/29 00:38:37;;;;;;;3.30;1.23;;;9.30;85.00;;;;;;5021953;28;20042;-79
2024/01/29 00:41:03;;;;;;;2.85;1.50;;;9.30;86.10;;;;;;4994464;28;20514;-79
2024/01/29 00:43:28;;;;;;;4.13;1.77;;;9.30;85.70;;;;;;5025048;28;20501;-79
2024/01/29 00:45:57;;;;;;;3.08;1.40;;;9.30;84.50;;;;;;4994354;28;20033;-80
2024/01/29 00:48:24;;;;;;;4.72;1.65;;;9.20;85.90;;;;;;5023808;28;20032;-79
2024/01/29 00:50:50;;;;;;;4.50;1.35;;;9.20;85.80;;;;;;5007851;28;20064;-80
2024/01/29 00:53:16;;;;;;;2.13;1.58;;;9.20;85.50;;;;;;5006555;28;20115;-80
2024/01/29 00:55:46;;;;;;;1.35;1.08;;;9.20;86.20;;;;;;4992919;28;20105;-81
2024/01/29 00:58:12;;;;;;;3.92;1.48;;;9.10;87.60;;;;;;5026501;28;20021;-81
2024/01/29 01:00:38;;;;;;;2.65;1.25;;;9.20;86.40;;;;;;5021329;28;20041;-81
2024/01/29 01:03:05;;;;;;;2.20;1.20;;;9.10;85.60;;;;;;5006076;28;20030;-80
2024/01/29 01:05:31;;;;;;;2.70;1.17;;;9.00;87.80;;;;;;5024446;28;20030;-81
2024/01/29 01:07:56;;;;;;;2.17;1.50;;;9.10;85.40;;;;;;5003523;28;20542;-81
2024/01/29 01:10:27;;;;;;;3.22;1.67;;;9.00;88.40;;;;;;5009888;28;20030;-81
2024/01/29 01:12:53;;;;;;;3.05;1.30;;;9.00;87.80;;;;;;5009928;28;20870;-81
2024/01/29 01:15:19;;;;;;;1.75;1.27;;;9.00;87.70;;;;;;4992488;28;20048;-82
2024/01/29 01:17:45;;;;;;;2.42;1.40;;;9.00;85.90;;;;;;4991846;28;20033;-82
2024/01/29 01:20:11;;;;;;;4.03;1.55;;;9.00;86.30;;;;;;5022082;28;20029;-82
2024/01/29 01:22:37;;;;;;;3.70;1.42;;;9.00;86.50;;;;;;5005920;28;20536;-82
2024/01/29 01:25:03;;;;;;;2.50;1.48;;;8.90;87.90;;;;;;5010185;28;20029;-81
2024/01/29 01:27:29;;;;;;;2.95;1.60;;;8.90;87.70;;;;;;5010943;28;20500;-83
2024/01/29 01:29:54;;;;;;;1.65;1.40;;;9.00;87.00;;;;;;5001257;28;20030;-82
2024/01/29 01:32:20;;;;;;;3.05;1.50;;;8.90;87.20;;;;;;4974559;28;20495;-82
2024/01/29 01:34:46;;;;;;;2.90;1.45;;;8.90;87.00;;;;;;5018987;28;20099;-82
2024/01/29 01:37:14;;;;;;;3.00;1.38;;;8.90;87.00;;;;;;5014380;28;20052;-83
2024/01/29 01:39:40;;;;;;;2.22;1.25;;;8.90;88.80;;;;;;5013868;28;20044;-80
2024/01/29 01:42:06;;;;;;;2.90;1.25;;;8.90;88.10;;;;;;5011638;28;20060;-80
2024/01/29 01:44:32;;;;;;;3.15;1.38;;;8.90;90.10;;;;;;5029780;28;20511;-79
2024/01/29 01:46:57;;;;;;;2.50;1.35;;;8.90;90.00;;;;;;4991778;28;20059;-79
2024/01/29 01:49:23;;;;;;;1.23;0.90;;;8.70;90.00;;;;;;5013595;28;20044;-79
2024/01/29 01:51:49;;;;;;;3.00;1.20;;;8.90;88.70;;;;;;5009426;28;20453;-80
2024/01/29 01:54:14;;;;;;;2.95;1.48;;;8.80;88.80;;;;;;5027905;28;20117;-79
2024/01/29 01:56:40;;;;;;;4.60;1.58;;;8.90;88.60;;;;;;5013677;28;20055;-80
2024/01/29 01:59:07;;;;;;;3.50;1.75;;;8.90;90.00;;;;;;4990333;28;20036;-79
2024/01/29 02:01:32;;;;;;;2.58;1.38;;;8.90;89.20;;;;;;5043070;28;20674;-79
2024/01/29 02:04:00;;;;;;;4.13;1.60;;;8.80;90.60;;;;;;5025475;28;20047;-80
2024/01/29 02:06:26;;;;;;;1.83;1.38;;;8.80;90.60;;;;;;5029719;28;20036;-81
2024/01/29 02:08:51;;;;;;;2.53;1.40;;;8.90;90.20;;;;;;5028956;28;20384;-81
2024/01/29 02:11:17;;;;;;;1.38;0.93;;;8.80;90.10;;;;;;5015411;28;20045;-79
2024/01/29 02:13:42;;;;;;;3.05;1.30;;;8.70;91.00;;;;;;5016240;28;20032;-81
2024/01/29 02:16:08;;;;;;;2.90;1.58;;;8.70;90.70;;;;;;5000723;28;20043;-81
2024/01/29 02:18:33;;;;;;;1.98;1.42;;;8.60;90.80;;;;;;5029551;28;20090;-80
2024/01/29 02:21:00;;;;;;;2.92;1.77;;;8.60;90.80;;;;;;5007933;28;20048;-81
2024/01/29 02:23:25;;;;;;;2.40;1.33;;;8.60;91.00;;;;;;5031233;28;20037;-81
2024/01/29 02:25:51;;;;;;;2.58;1.38;;;8.60;91.40;;;;;;5018248;28;20037;-81
2024/01/29 02:28:17;;;;;;;3.30;1.58;;;8.60;91.00;;;;;;5010954;28;20714;-81
2024/01/29 02:30:43;;;;;;;1.92;1.42;;;8.60;90.80;;;;;;5029146;28;20524;-80
2024/01/29 02:33:09;;;;;;;3.17;1.88;;;8.60;90.50;;;;;;5033507;28;20128;-80
2024/01/29 02:35:34;;;;;;;2.72;1.45;;;8.60;90.10;;;;;;5028237;28;20116;-80
2024/01/29 02:38:00;;;;;;;3.90;1.48;;;8.70;91.10;;;;;;5012654;28;20029;-81
2024/01/29 02:40:26;;;;;;;2.90;1.67;;;8.60;90.80;;;;;;5028758;28;20025;-81
2024/01/29 02:42:51;;;;;;;3.97;1.85;;;8.50;90.70;;;;;;5011814;28;20037;-81
2024/01/29 02:45:17;;;;;;;2.50;1.50;;;8.50;91.00;;;;;;5013924;28;20047;-81
2024/01/29 02:47:42;;;;;;;3.22;1.50;;;8.50;90.20;;;;;;5027364;28;20033;-80
2024/01/29 02:50:08;;;;;;;3.00;1.73;;;8.60;91.20;;;;;;5009724;28;20906;-81
2024/01/29 02:52:35;;;;;;;2.47;1.55;;;8.60;90.60;;;;;;5026884;28;20029;-80
2024/01/29 02:55:04;;;;;;;1.80;1.27;;;8.50;91.20;;;;;;5026174;28;20041;-80
2024/01/29 02:57:30;;;;;;;4.22;1.70;;;8.50;91.70;;;;;;5027455;28;20382;-80
2024/01/29 02:59:55;;;;;;;5.30;2.42;;;8.40;91.20;;;;;;4996323;28;20029;-80
2024/01/29 03:02:21;;;;;;;4.75;2.17;;;8.30;92.00;;;;;;5013505;28;20071;-80
2024/01/29 03:04:47;;;;;;;2.35;1.40;;;8.40;91.20;;;;;;4992879;28;20030;-81
2024/01/29 03:07:12;;;;;;;3.30;1.45;;;8.40;91.70;;;;;;5009352;28;20593;-81
2024/01/29 03:09:38;;;;;;;2.95;1.63;;;8.40;92.10;;;;;;5026681;28;20102;-80
2024/01/29 03:12:04;;;;;;;2.13;1.30;;;8.40;92.10;;;;;;5012680;28;20548;-80
2024/01/29 03:14:29;;;;;;;2.13;1.30;;;8.40;92.10;;;;;;5008894;28;20123;-80
2024/01/29 03:16:55;;;;;;;3.75;1.83;;;8.40;91.70;;;;;;5012295;28;20029;-80
2024/01/29 03:19:20;;;;;;;2.50;1.60;;;8.30;92.80;;;;;;5041987;28;20037;-78
2024/01/29 03:21:46;;;;;;;2.80;1.35;;;8.30;92.60;;;;;;4995226;28;20106;-78
2024/01/29 03:24:12;;;;;;;3.42;1.83;;;8.40;92.40;;;;;;4993203;28;20549;-78
2024/01/29 03:26:40;;;;;;;1.63;1.40;;;8.40;92.00;;;;;;4991620;28;20116;-78
2024/01/29 03:29:06;;;;;;;4.00;2.13;;;8.30;92.40;;;;;;5007605;28;20087;-78
2024/01/29 03:31:32;;;;;;;3.22;1.40;;;8.20;92.10;;;;;;4990741;28;20044;-79
2024/01/29 03:33:57;;;;;;;1.85;1.42;;;8.30;92.80;;;;;;5006132;28;20033;-78
2024/01/29 03:36:23;;;;;;;3.08;1.48;;;8.30;92.90;;;;;;5012688;28;20029;-79
2024/01/29 03:38:48;;;;;;;2.47;1.20;;;8.30;93.20;;;;;;4992872;28;20040;-78
2024/01/29 03:41:14;;;;;;;1.25;1.00;;;8.30;93.10;;;;;;5010402;28;20037;-78
2024/01/29 03:43:39;;;;;;;3.05;1.70;;;8.30;93.20;;;;;;4994588;28;20033;-78
2024/01/29 03:46:05;;;;;;;1.35;1.20;;;8.30;92.60;;;;;;5004791;28;20878;-78
2024/01/29 03:48:30;;;;;;;4.05;1.52;;;8.40;93.00;;;;;;5009543;28;20794;-79
2024/01/29 03:50:56;;;;;;;2.05;1.55;;;8.30;93.00;;;;;;5010397;28;20056;-79
2024/01/29 03:53:21;;;;;;;2.45;1.45;;;8.30;92.60;;;;;;5023218;28;20495;-79
2024/01/29 03:55:47;;;;;;;3.30;1.83;;;8.30;92.70;;;;;;5014353;28;20449;-78
2024/01/29 03:58:13;;;;;;;3.20;2.20;;;8.30;91.70;;;;;;5009790;28;20456;-78
2024/01/29 04:00:39;;;;;;;4.07;1.75;;;8.30;93.00;;;;;;5025086;28;20074;-79
2024/01/29 04:03:04;;;;;;;3.53;1.63;;;8.20;92.70;;;;;;5006270;28;20033;-79
2024/01/29 04:05:30;;;;;;;1.67;1.30;;;8.20;92.90;;;;;;5016897;28;20025;-79
2024/01/29 04:07:55;;;;;;;3.50;1.90;;;8.20;93.10;;;;;;4992998;28;20021;-79
2024/01/29 04:10:21;;;;;;;2.95;1.38;;;8.20;93.50;;;;;;5022908;28;20028;-78
2024/01/29 04:12:47;;;;;;;1.85;1.40;;;8.10;93.90;;;;;;5007424;28;20104;-79
2024/01/29 04:15:12;;;;;;;1.65;1.20;;;8.10;93.90;;;;;;5013827;28;20559;-78
2024/01/29 04:17:38;;;;;;;3.67;1.60;;;8.10;94.10;;;;;;5010638;28;20152;-79
2024/01/29 04:20:07;;;;;;;3.45;1.73;;;8.10;94.20;;;;;;5014996;28;20428;-79
2024/01/29 04:22:33;;;;;;;3.60;1.45;;;8.00;93.40;;;;;;5006116;28;20033;-79
2024/01/29 04:25:00;;;;;;;4.03;1.60;;;7.90;94.10;;;;;;5007168;28;20029;-78
2024/01/29 04:27:25;;;;;;;5.03;1.42;;;7.90;94.20;;;;;;5025032;28;20029;-78
2024/01/29 04:29:51;;;;;;;3.58;1.88;;;7.90;94.50;;;;;;5038941;28;20041;-77
2024/01/29 04:32:16;;;;;;;3.88;2.03;;;7.90;94.20;;;;;;4995118;28;20067;-78
2024/01/29 04:34:42;;;;;;;3.30;2.13;;;7.80;94.50;;;;;;5008221;28;20047;-81
2024/01/29 04:37:07;;;;;;;4.10;2.42;;;7.70;94.50;;;;;;4994239;28;20055;-83
2024/01/29 04:39:33;;;;;;;6.55;4.38;;;7.70;95.00;;;;;;5023395;28;20404;-83
2024/01/29 04:42:01;;;;;;;7.28;3.83;;;7.60;94.30;;;;;;5024221;28;20029;-83
2024/01/29 04:44:27;;;;;;;4.03;2.20;;;7.50;93.80;;;;;;5026631;28;20037;-82
2024/01/29 04:46:52;;;;;;;6.60;3.15;;;7.40;95.10;;;;;;5022286;28;20039;-82
2024/01/29 04:49:18;;;;;;;3.53;2.10;;;7.40;95.10;;;;;;5006717;28;20044;-81
2024/01/29 04:51:43;;;;;;;4.65;2.25;;;7.40;95.50;;;;;;5038591;28;20036;-82
2024/01/29 04:54:09;;;;;;;3.85;1.40;;;7.40;96.80;;;;;;5007479;28;20044;-82
2024/01/29 04:56:35;;;;;;;3.45;2.30;;;7.40;96.50;;;;;;5024187;28;20029;-82
2024/01/29 04:59:01;;;;;;;2.55;1.60;;;7.40;96.30;;;;;;5011084;28;20448;-82
2024/01/29 05:01:26;;;;;;;2.70;1.65;;;7.30;96.60;;;;;;5004600;28;20056;-83
2024/01/29 05:03:53;;;;;;;2.40;1.58;;;7.30;96.70;;;;;;5007553;28;20037;-83
2024/01/29 05:06:20;;;;;;;2.63;1.58;;;7.30;96.90;;;;;;5010464;28;20036;-84
2024/01/29 05:08:45;;;;;;;2.60;1.52;;;7.40;97.50;;;;;;5005283;28;20102;-83
2024/01/29 05:11:11;;;;;;;3.15;2.05;;;7.40;97.20;;;;;;5006214;28;20033;-82
2024/01/29 05:13:36;;;;;;;4.40;2.30;;;7.40;96.90;;;;;;5022025;28;20041;-82
2024/01/29 05:16:02;;;;;;;4.28;1.85;;;7.30;97.20;;;;;;4996281;28;20477;-82
2024/01/29 05:18:28;;;;;;;4.05;2.10;;;7.40;97.60;;;;;;5024857;28;20587;-82
2024/01/29 05:20:53;;;;;;;5.30;1.92;;;7.40;97.00;;;;;;4994981;28;20633;-83
2024/01/29 05:23:19;;;;;;;2.58;1.88;;;7.40;97.00;;;;;;5023881;28;20443;-85
2024/01/29 05:25:44;;;;;;;3.95;2.00;;;7.40;97.20;;;;;;4997335;28;20660;-84
2024/01/29 05:28:10;;;;;;;2.28;1.90;;;7.30;97.40;;;;;;5009069;28;20468;-85
2024/01/29 05:30:35;;;;;;;2.38;1.63;;;7.20;97.00;;;;;;5024136;28;20029;-83
2024/01/29 05:33:01;;;;;;;2.75;1.92;;;7.10;97.60;;;;;;5011585;28;20025;-84
2024/01/29 05:35:27;;;;;;;2.60;1.67;;;7.10;97.30;;;;;;5009028;28;20102;-86
2024/01/29 05:37:52;;;;;;;2.33;1.75;;;7.10;98.10;;;;;;4992177;28;20033;-80
2024/01/29 05:40:18;;;;;;;3.13;1.98;;;7.10;98.60;;;;;;5022511;28;20037;-80
2024/01/29 05:42:43;;;;;;;2.83;1.70;;;7.10;97.80;;;;;;5021502;28;20112;-80
2024/01/29 05:45:09;;;;;;;3.30;2.00;;;7.10;98.30;;;;;;5003033;28;20033;-79
2024/01/29 05:47:35;;;;;;;2.92;1.80;;;7.00;98.50;;;;;;4990957;28;20075;-79
2024/01/29 05:50:01;;;;;;;4.35;2.10;;;7.00;98.60;;;;;;5020481;28;20037;-79
2024/01/29 05:52:29;;;;;;;3.75;2.10;;;6.90;97.60;;;;;;5007578;28;20232;-80
2024/01/29 05:54:54;;;;;;;5.50;1.80;;;6.80;97.20;;;;;;5020141;28;20721;-80
2024/01/29 05:57:20;;;;;;;2.55;1.90;;;6.80;99.60;;;;;;5004884;28;20044;-86
2024/01/29 05:59:45;;;;;;;3.08;1.73;;;6.90;99.90;;;;;;5009172;28;20045;-86
2024/01/29 06:02:11;;;;;;;3.85;1.98;;;6.90;98.80;;;;;;5012134;28;20063;-85
2024/01/29 06:04:37;;;;;;;6.25;2.92;;;6.90;99.90;;;;;;4991584;28;20048;-85
2024/01/29 06:07:02;;;;;;;4.68;3.08;;;6.80;98.70;;;;;;5011542;28;20084;-85
2024/01/29 06:09:28;;;;;;;2.03;1.80;;;6.60;98.60;;;;;;5023028;28;20473;-87
2024/01/29 06:11:54;;;;;;;5.32;2.40;;;6.70;99.90;;;;;;5038098;28;20029;-86
2024/01/29 06:14:20;;;;;;;5.55;2.90;;;6.70;99.90;;;;;;5024050;28;20036;-85
2024/01/29 06:16:45;;;;;;;4.93;3.03;;;6.70;99.90;;;;;;5026999;28;20075;-85
2024/01/29 06:19:15;;;;;;;4.00;2.42;;;6.60;99.70;;;;;;5025801;28;20082;-83
2024/01/29 06:21:42;;;;;;;5.05;1.73;;;6.60;99.90;;;;;;5008897;28;20036;-84
2024/01/29 06:24:08;;;;;;;1.95;1.35;;;6.70;99.90;;;;;;5029132;28;20086;-85
2024/01/29 06:26:33;;;;;;;3.05;1.80;;;6.70;99.90;;;;;;5032390;28;20037;-88
2024/01/29 06:28:59;;;;;;;3.03;2.25;;;6.80;99.90;;;;;;5007441;28;20037;-87
2024/01/29 06:31:24;;;;;;;3.47;2.03;;;6.70;99.90;;;;;;5011895;28;20041;-84
2024/01/29 06:33:53;;;;;;;3.10;2.20;;;6.80;99.90;;;;;;5019681;28;20037;-86
2024/01/29 06:36:21;;;;;;;3.58;2.28;;;6.70;99.90;;;;;;4997506;28;20040;-86
2024/01/29 06:38:47;;;;;;;3.90;2.15;;;6.70;99.90;;;;;;5027852;28;20405;-84
2024/01/29 06:41:23;;;;;;;4.07;2.33;;;6.60;99.90;;;;;;5026831;28;20043;-84
2024/01/29 06:43:49;;;;;;;5.40;2.40;;;6.70;99.90;;;;;;5023247;28;20473;-83
2024/01/29 06:46:15;;;;;;;4.20;1.65;;;6.60;99.90;;;;;;5027849;28;20029;-84
2024/01/29 06:48:40;;;;;;;4.70;2.80;;;6.60;99.90;;;;;;5006417;28;20099;-79
2024/01/29 06:51:06;;;;;;;5.57;3.47;;;6.50;99.90;;;;;;5012528;28;20116;-79
2024/01/29 06:53:35;;;;;;;4.25;2.33;;;6.50;99.90;;;;;;5013398;28;20037;-80
2024/01/29 06:56:04;;;;;;;6.88;2.45;;;6.60;99.90;;;;;;5008426;28;20199;-80
2024/01/29 06:58:30;;;;;;;3.00;1.88;;;6.70;99.90;;;;;;5008287;28;20489;-80
2024/01/29 07:00:56;;;;;;;3.15;2.08;;;6.60;99.90;;;;;;5008626;28;20037;-80
2024/01/29 07:03:22;;;;;;;4.53;2.58;;;6.60;99.90;;;;;;4993155;28;20068;-80
2024/01/29 07:05:48;;;;;;;3.40;2.35;;;6.60;99.90;;;;;;4991388;28;20112;-80
2024/01/29 07:08:14;;;;;;;3.30;2.35;;;6.60;99.90;;;;;;4986532;28;20128;-81
2024/01/29 07:10:39;;;;;;;4.28;2.60;;;6.60;99.90;;;;;;4995560;28;20123;-80
2024/01/29 07:13:05;;;;;;;4.88;2.42;;;6.50;99.90;;;;;;5008739;28;20036;-80
2024/01/29 07:15:31;;;;;;;3.22;1.83;;;6.40;99.90;;;;;;5026045;28;20036;-80
2024/01/29 07:17:56;;;;;;;4.80;2.28;;;6.40;99.90;;;;;;5039315;28;20040;-80
2024/01/29 07:20:22;;;;;;;3.50;2.20;;;6.30;99.90;;;;;;4999339;28;20417;-79
2024/01/29 07:22:48;;;;;;;4.93;2.35;;;6.40;99.90;;;;;;5024800;28;20140;-80
2024/01/29 07:25:13;;;;;;;5.53;2.70;;;6.40;99.90;;;;;;5009504;28;20036;-80
2024/01/29 07:27:39;;;;;;;4.22;1.75;;;6.30;99.90;;;;;;5026992;28;20120;-80
2024/01/29 07:30:05;;;;;;;5.45;3.17;;;6.30;99.90;;;;;;5024757;28;20029;-80
2024/01/29 07:32:34;;;;;;;6.53;2.65;;;6.10;99.90;;;;;;5022815;28;20039;-79
2024/01/29 07:35:03;;;;;;;3.10;2.20;;;6.10;99.90;;;;;;4990527;28;20060;-79
2024/01/29 07:37:29;;;;;;;6.30;2.60;;;6.20;99.90;;;;;;5025687;28;20048;-80
2024/01/29 07:39:55;;;;;;;4.22;2.75;;;6.30;99.90;;;;;;5019878;28;20030;-80
2024/01/29 07:42:20;;;;;;;5.43;2.78;;;6.30;99.90;;;;;;5023354;28;20033;-80
2024/01/29 07:44:46;;;;;;;6.95;2.67;;;6.30;99.90;;;;;;5009934;28;20041;-80
2024/01/29 07:47:13;;;;;;;3.03;2.22;;;6.20;99.90;;;;;;5006408;28;20037;-79
2024/01/29 07:49:39;;;;;;;8.38;2.95;;;6.20;99.90;;;;;;5014494;28;20108;-88
2024/01/29 07:52:04;;;;;;;5.97;3.00;;;6.20;99.90;;;;;;5013709;28;20101;-85
2024/01/29 07:54:30;;;;;;;3.92;2.22;;;6.20;99.90;;;;;;5028373;28;20051;-90
2024/01/29 07:56:55;;;;;;;4.63;2.35;;;6.20;99.90;;;;;;4990867;28;20041;-88
2024/01/29 07:59:21;;;;;;;4.07;2.05;;;6.30;99.90;;;;;;5009437;28;20029;-90
2024/01/29 08:01:47;;;;;;;3.70;2.08;;;6.30;99.90;;;;;;5008727;28;20086;-86
2024/01/29 08:04:12;;;;;;;2.80;2.30;;;6.40;99.90;;;;;;4997538;28;20569;-90
2024/01/29 08:06:38;;;;;;;4.78;2.92;;;6.40;99.90;;;;;;4996967;28;20043;-85
2024/01/29 08:09:06;;;;;;;4.85;2.22;;;6.50;99.90;;;;;;5028630;28;20115;-88
2024/01/29 08:11:32;;;;;;;6.18;2.75;;;6.60;99.90;;;;;;5006993;28;20082;-88
2024/01/29 08:13:58;;;;;;;5.63;3.00;;;6.70;99.90;;;;;;4990338;28;20037;-85
2024/01/29 08:16:24;;;;;;;5.95;3.15;;;6.80;99.90;;;;;;5024879;28;20555;-84
2024/01/29 08:18:50;;;;;;;5.38;3.28;;;6.90;99.90;;;;;;5014293;28;20036;-84
2024/01/29 08:21:16;;;;;;;4.63;2.72;;;6.90;99.90;;;;;;5029289;28;20491;-84
2024/01/29 08:23:42;;;;;;;4.07;2.75;;;7.00;99.90;;;;;;4969416;28;20693;-84
2024/01/29 08:26:07;;;;;;;3.53;2.03;;;7.10;99.90;;;;;;4990905;28;20025;-89
2024/01/29 08:28:33;;;;;;;4.15;2.97;;;7.30;99.90;;;;;;4996412;28;20026;-87
2024/01/29 08:31:00;;;;;;;5.40;2.85;;;7.40;99.90;;;;;;4995383;28;20051;-86
2024/01/29 08:33:26;;;;;;;6.72;2.88;;;7.50;99.90;;;;;;4996615;28;20024;-86
2024/01/29 08:35:51;;;;;;;4.55;2.60;;;7.50;99.90;;;;;;5041222;28;20086;-81
2024/01/29 08:38:17;;;;;;;6.60;3.22;;;7.50;99.90;;;;;;5000565;28;20117;-85
2024/01/29 08:40:42;;;;;;;4.80;2.75;;;7.70;99.90;;;;;;5021338;28;20133;-84
2024/01/29 08:43:08;;;;;;;5.47;2.90;;;7.80;99.90;;;;;;5029365;28;20682;-85
2024/01/29 08:45:34;;;;;;;6.50;2.67;;;8.00;99.90;;;;;;5024359;28;20037;-86
2024/01/29 08:48:00;;;;;;;5.00;2.70;;;8.10;99.90;;;;;;5007097;28;20052;-84
2024/01/29 08:50:26;;;;;;;5.97;3.40;;;8.00;99.90;;;;;;5024907;28;20457;-86
2024/01/29 08:52:51;;;;;;;4.90;2.60;;;8.10;99.90;;;;;;4994591;28;20029;-87
2024/01/29 08:55:17;;;;;;;5.22;2.65;;;8.30;99.90;;;;;;4993748;28;20049;-85
2024/01/29 08:57:43;;;;;;;7.05;2.88;;;8.30;99.90;;;;;;5026076;28;20036;-87
2024/01/29 09:00:09;;;;;;;4.50;2.53;;;8.50;99.90;;;;;;5007442;28;20112;-87
2024/01/29 09:02:35;;;;;;;4.90;2.72;;;8.60;99.90;;;;;;5008633;28;20053;-88
2024/01/29 09:05:00;;;;;;;5.00;2.58;;;8.80;99.90;;;;;;5011967;28;20036;-87
2024/01/29 09:07:26;;;;;;;4.88;3.03;;;8.90;99.90;;;;;;5022407;28;20033;-79
2024/01/29 09:09:52;;;;;;;5.43;2.88;;;9.00;99.90;;;;;;4990692;28;20034;-80
2024/01/29 09:12:17;;;;;;;4.55;3.15;;;9.10;99.90;;;;;;5023297;28;20033;-81
2024/01/29 09:14:43;;;;;;;5.93;2.65;;;9.10;99.90;;;;;;5011279;28;20489;-81
2024/01/29 09:17:09;;;;;;;6.28;2.80;;;9.20;99.90;;;;;;5021057;28;21058;-80
2024/01/29 09:19:34;;;;;;;5.70;3.50;;;9.20;99.90;;;;;;5007130;28;20035;-80
2024/01/29 09:22:00;;;;;;;4.65;3.03;;;9.20;99.90;;;;;;5023459;28;20060;-79
2024/01/29 09:24:25;;;;;;;6.28;3.03;;;9.30;99.90;;;;;;5005922;28;20025;-79
2024/01/29 09:26:51;;;;;;;4.43;2.70;;;9.40;99.90;;;;;;5006485;28;20040;-78
2024/01/29 09:29:17;;;;;;;4.63;2.75;;;9.50;99.90;;;;;;5021458;28;20244;-79
2024/01/29 09:31:45;;;;;;;8.73;2.80;;;9.50;99.90;;;;;;5010234;28;20049;-79
2024/01/29 09:34:11;;;;;;;5.10;3.50;;;9.70;99.90;;;;;;5005205;28;20477;-79
2024/01/29 09:36:36;;;;;;;7.57;3.08;;;9.60;99.90;;;;;;5003595;28;20049;-79
2024/01/29 09:39:02;;;;;;;4.93;2.47;;;9.70;99.90;;;;;;5036542;28;20029;-79
2024/01/29 09:41:34;;;;;;;5.57;3.35;;;9.80;99.90;;;;;;4981813;28;20476;-78
2024/01/29 09:44:01;;;;;;;4.78;2.67;;;9.90;99.90;;;;;;5000180;28;20068;-79
2024/01/29 09:46:26;;;;;;;4.00;2.80;;;10.10;99.90;;;;;;5023571;28;20029;-80
2024/01/29 09:48:52;;;;;;;6.95;2.72;;;10.30;99.90;;;;;;5011219;28;20035;-79
2024/01/29 09:51:17;;;;;;;6.97;2.97;;;10.10;99.90;;;;;;5006038;28;20049;-79
2024/01/29 09:53:44;;;;;;;4.57;2.47;;;10.30;99.90;;;;;;5004730;28;20045;-79
2024/01/29 09:56:10;;;;;;;4.57;2.35;;;10.30;99.90;;;;;;5020481;28;20507;-78
2024/01/29 09:58:35;;;;;;;3.65;2.85;;;10.30;99.90;;;;;;5006932;28;20097;-79
2024/01/29 10:01:02;;;;;;;4.25;2.42;;;10.60;99.40;;;;;;5009764;28;20047;-78
2024/01/29 10:03:32;;;;;;;4.75;2.83;;;10.60;99.50;;;;;;5013413;28;20041;-83
2024/01/29 10:05:58;;;;;;;6.55;3.08;;;10.70;99.70;;;;;;5030413;28;20574;-86
2024/01/29 10:08:24;;;;;;;6.15;3.10;;;10.90;99.00;;;;;;5000061;28;20104;-86
2024/01/29 10:10:51;;;;;;;4.15;2.20;;;10.90;99.40;;;;;;5015759;28;20106;-86
2024/01/29 10:13:17;;;;;;;4.43;3.08;;;11.10;99.20;;;;;;5015212;28;20635;-84
2024/01/29 10:15:44;;;;;;;4.50;2.78;;;11.30;98.90;;;;;;5027995;28;20074;-86
2024/01/29 10:18:10;;;;;;;7.15;3.35;;;11.40;98.60;;;;;;5046225;28;20029;-79
2024/01/29 10:20:36;;;;;;;3.85;2.78;;;11.60;98.10;;;;;;5023073;28;20028;-79
2024/01/29 10:23:02;;;;;;;5.13;3.40;;;11.60;98.10;;;;;;5010612;28;20031;-79
2024/01/29 10:25:29;;;;;;;3.22;2.20;;;11.80;97.80;;;;;;5027561;28;20033;-79
2024/01/29 10:28:12;;;;;;;6.43;2.67;;;11.80;98.00;;;;;;5012504;28;20029;-80
2024/01/29 10:30:41;;;;;;;4.15;2.95;;;11.90;98.00;;;;;;5011252;28;20086;-78
2024/01/29 10:33:07;;;;;;;6.90;2.95;;;12.00;97.60;;;;;;5027369;28;20036;-78
2024/01/29 10:35:33;;;;;;;3.58;2.40;;;12.20;97.80;;;;;;5025101;28;20098;-79
2024/01/29 10:38:04;;;;;;;6.45;2.90;;;12.00;98.20;;;;;;5012641;28;20033;-79
2024/01/29 10:40:30;;;;;;;5.97;3.28;;;12.00;98.40;;;;;;4996471;28;20052;-78
2024/01/29 10:42:57;;;;;;;5.70;2.47;;;12.40;97.70;;;;;;4997705;28;20401;-77
2024/01/29 10:45:23;;;;;;;4.80;2.72;;;12.60;97.50;;;;;;4996793;28;20037;-79
2024/01/29 10:47:52;;;;;;;7.80;3.42;;;12.70;97.20;;;;;;5012337;28;20049;-79
2024/01/29 10:50:19;;;;;;;7.32;3.15;;;13.00;96.40;;;;;;5007538;28;20044;-79
2024/01/29 10:52:46;;;;;;;6.18;3.30;;;13.00;96.50;;;;;;5005737;28;20508;-78
2024/01/29 10:55:13;;;;;;;3.45;2.40;;;13.00;97.30;;;;;;5005294;28;20434;-78
2024/01/29 10:57:38;;;;;;;8.73;3.60;;;13.20;97.20;;;;;;5005783;28;20497;-78
2024/01/29 11:00:05;;;;;;;4.72;3.17;;;13.10;97.00;;;;;;5011909;28;20036;-78
2024/01/29 11:02:31;;;;;;;8.60;3.88;;;13.40;97.10;;;;;;4993833;28;20034;-78
2024/01/29 11:04:57;;;;;;;8.57;3.92;;;13.60;96.50;;;;;;4995562;28;20383;-78
2024/01/29 11:07:24;;;;;;;4.75;3.28;;;13.60;96.90;;;;;;5008818;28;20109;-78
2024/01/29 11:09:59;;;;;;;3.80;2.42;;;13.90;96.70;;;;;;5024644;28;20545;-78
2024/01/29 11:12:25;;;;;;;6.43;3.33;;;14.00;96.60;;;;;;5010286;28;20120;-78
2024/01/29 11:14:58;;;;;;;6.28;3.30;;;14.10;95.50;;;;;;5021048;28;20167;-79
2024/01/29 11:17:25;;;;;;;5.90;3.10;;;13.90;96.40;;;;;;4991208;28;20048;-79
2024/01/29 11:19:51;;;;;;;4.43;1.65;;;13.90;96.90;;;;;;5012865;28;20442;-79
2024/01/29 11:22:16;;;;;;;3.47;2.55;;;14.50;95.40;;;;;;5021319;28;20041;-79
2024/01/29 11:24:43;;;;;;;4.75;2.70;;;14.60;95.00;;;;;;5019858;28;20058;-78
2024/01/29 11:27:09;;;;;;;3.72;2.47;;;14.40;96.20;;;;;;5020977;28;20152;-79
2024/01/29 11:29:37;;;;;;;6.63;2.90;;;14.50;95.90;;;;;;5041041;28;20530;-83
2024/01/29 11:32:04;;;;;;;3.88;2.67;;;14.60;96.20;;;;;;5029261;28;20493;-83
2024/01/29 11:34:30;;;;;;;4.72;2.60;;;14.50;96.50;;;;;;5023853;28;20094;-83
2024/01/29 11:36:55;;;;;;;6.32;2.88;;;15.00;94.90;;;;;;4993089;28;20033;-82
2024/01/29 11:39:24;;;;;;;3.22;2.05;;;15.00;95.60;;;;;;5035327;28;20040;-85
2024/01/29 11:41:50;;;;;;;4.18;3.13;;;14.80;95.50;;;;;;5027315;28;20054;-81
2024/01/29 11:44:18;;;;;;;3.92;2.33;;;15.00;95.50;;;;;;5019963;28;20030;-83
2024/01/29 11:46:43;;;;;;;5.55;3.35;;;15.50;94.20;;;;;;5008388;28;20658;-82
2024/01/29 11:49:10;;;;;;;3.50;2.22;;;15.50;93.20;;;;;;5024320;28;20029;-81
2024/01/29 11:51:37;;;;;;;2.83;2.03;;;15.50;93.30;;;;;;5005528;28;20052;-82
2024/01/29 11:54:03;;;;;;;7.65;3.95;;;15.50;93.20;;;;;;5022637;28;20082;-81
2024/01/29 11:56:29;;;;;;;6.35;3.10;;;15.60;92.20;;;;;;4993756;28;20776;-82
2024/01/29 11:59:04;;;;;;;5.15;3.05;;;15.60;92.20;;;;;;4994797;28;20052;-82
2024/01/29 12:01:31;;;;;;;3.77;2.77;;;15.60;91.60;;;;;;5013488;28;20489;-82
2024/01/29 12:03:59;;;;;;;6.50;2.95;;;15.40;93.40;;;;;;5007984;28;21205;-82
2024/01/29 12:06:25;;;;;;;3.97;2.60;;;15.10;94.00;;;;;;4992601;28;20031;-82
2024/01/29 12:08:53;;;;;;;5.85;2.70;;;15.20;94.10;;;;;;5008038;28;20033;-82
2024/01/29 12:11:20;;;;;;;3.97;2.35;;;15.00;94.40;;;;;;5023327;28;20029;-82
2024/01/29 12:13:47;;;;;;;3.40;2.45;;;15.20;94.60;;;;;;5009879;28;20444;-82
2024/01/29 12:16:13;;;;;;;6.78;3.53;;;15.50;94.10;;;;;;5023453;28;20450;-81
2024/01/29 12:18:38;;;;;;;5.90;2.75;;;15.60;92.90;;;;;;5011251;28;20049;-81
2024/01/29 12:21:08;;;;;;;6.72;2.85;;;15.60;93.20;;;;;;5021606;28;20188;-81
2024/01/29 12:23:33;;;;;;;4.30;2.70;;;15.80;93.40;;;;;;5010733;28;20036;-81
2024/01/29 12:25:59;;;;;;;5.45;3.47;;;15.70;94.40;;;;;;5010750;28;20033;-81
2024/01/29 12:28:27;;;;;;;5.95;3.67;;;15.70;93.60;;;;;;5006504;28;20148;-81
2024/01/29 12:30:57;;;;;;;4.82;2.85;;;16.00;94.20;;;;;;5010006;28;20049;-81
2024/01/29 12:33:28;;;;;;;5.38;3.05;;;15.90;93.40;;;;;;5023613;28;20104;-82
2024/01/29 12:35:54;;;;;;;5.22;2.58;;;15.90;94.80;;;;;;5007947;28;20033;-81
2024/01/29 12:38:22;;;;;;;4.63;3.20;;;16.00;93.20;;;;;;5023550;28;20545;-81
2024/01/29 12:40:49;;;;;;;4.28;2.70;;;16.20;93.30;;;;;;5024125;28;20476;-81
2024/01/29 12:43:14;;;;;;;4.80;2.97;;;16.30;93.00;;;;;;5022876;28;20053;-81
2024/01/29 12:45:41;;;;;;;4.47;3.35;;;16.30;93.10;;;;;;5022467;28;20053;-81
2024/01/29 12:48:11;;;;;;;3.42;2.55;;;16.40;93.10;;;;;;5041800;28;20516;-81
2024/01/29 12:50:41;;;;;;;6.38;3.35;;;16.40;92.20;;;;;;5001794;28;20556;-81